Forside
METAR-TAF:

METAR-TAF

Lufthavne :

Semey, Kasakhstan

Breddekreds: 50-21-05N, længdekreds: 080-14-04E, højde: 232 m

Aktuelle vejr

Denne rapport blev lavet for 39 minutter siden, kl. 23:30 UTC
Vind 10 kt fra nord
Temperatur 19°C
Fugtighed 60%
Tryk 1004 hPa
Sigt 10 km eller mere
ingen skyer under 1500m og ingen cumulonimbus

METAR: UASS 162330Z 01005MPS CAVOK 19/11 Q1004 NOSIG RMK QFE735/0980

Tid: 06:09 (00:09 UTC)

Vejrudsigter

Denne rapport blev lavet for 1 time og 7 minutter siden, kl. 23:02 UTC
Foreløbig gælder fra 17 på 00 UTC til 17 på 09 UTC
Vind 10 kt fra nord med vindstød på up til 19 kt
Sigt 10 km eller mere
Spredte skyer i en højde af 4000 ft
Spredte skyer i en højde af 10000 ft
Midlertidig
fra 17 på 03 UTC til 17 på 09 UTC
Vind 16 kt fra nordøst
Brudte skyer i en højde af 3000 ft, Cumulonimbus.

TAF: UASS 162302Z 1700/1709 36005G10MPS 9999 SCT040 SCT100 TEMPO 1703/1709 04008MPS BKN030CB

Vejrobservationer og prognoser fra mere end 4000 lufthavne (METAR og TAF).

De gule og røde prikker repræsenterer de meteorologiske stationer.

Flyt musen over at se navnet på stationen.

Så klik over at se vejr observationer og prognoser.

At skifte det kort: Klik på de grønne knapper med et sort kors for at zoome ind; på den grønne knap med en bindestreg for at zoome ud; eller på de grønne pile for tilstødende kort.


METAR-TAF: